sensor_id;sensor_type;location;lat;lon;timestamp;P1;durP1;ratioP1;P2;durP2;ratioP2
15669;SDS011;18524;45.190;5.732;2022-08-21T00:00:13;1.70;;;1.60;;
15669;SDS011;18524;45.190;5.732;2022-08-21T00:05:06;2.63;;;1.53;;
15669;SDS011;18524;45.190;5.732;2022-08-21T00:09:56;1.40;;;1.30;;
15669;SDS011;18524;45.190;5.732;2022-08-21T00:14:48;3.27;;;1.80;;
15669;SDS011;18524;45.190;5.732;2022-08-21T00:19:39;3.03;;;1.70;;
15669;SDS011;18524;45.190;5.732;2022-08-21T00:24:29;1.63;;;1.53;;
15669;SDS011;18524;45.190;5.732;2022-08-21T00:29:20;2.23;;;1.57;;
15669;SDS011;18524;45.190;5.732;2022-08-21T00:34:11;2.07;;;1.50;;
15669;SDS011;18524;45.190;5.732;2022-08-21T00:39:03;1.50;;;1.27;;
15669;SDS011;18524;45.190;5.732;2022-08-21T00:43:55;1.97;;;1.07;;
15669;SDS011;18524;45.190;5.732;2022-08-21T00:48:45;2.10;;;1.20;;
15669;SDS011;18524;45.190;5.732;2022-08-21T00:53:37;3.40;;;1.20;;
15669;SDS011;18524;45.190;5.732;2022-08-21T00:58:29;1.97;;;1.10;;
15669;SDS011;18524;45.190;5.732;2022-08-21T01:03:22;1.13;;;1.10;;
15669;SDS011;18524;45.190;5.732;2022-08-21T01:08:16;1.87;;;1.00;;
15669;SDS011;18524;45.190;5.732;2022-08-21T01:13:08;3.43;;;1.30;;
15669;SDS011;18524;45.190;5.732;2022-08-21T01:18:00;1.87;;;1.20;;
15669;SDS011;18524;45.190;5.732;2022-08-21T01:22:52;1.63;;;1.50;;
15669;SDS011;18524;45.190;5.732;2022-08-21T01:27:43;2.33;;;1.23;;
15669;SDS011;18524;45.190;5.732;2022-08-21T01:32:33;5.10;;;1.30;;
15669;SDS011;18524;45.190;5.732;2022-08-21T01:37:24;2.60;;;1.43;;
15669;SDS011;18524;45.190;5.732;2022-08-21T01:42:14;2.03;;;1.30;;
15669;SDS011;18524;45.190;5.732;2022-08-21T01:47:06;2.50;;;1.20;;
15669;SDS011;18524;45.190;5.732;2022-08-21T01:51:58;1.73;;;1.40;;
15669;SDS011;18524;45.190;5.732;2022-08-21T01:56:50;1.40;;;1.30;;
15669;SDS011;18524;45.190;5.732;2022-08-21T02:01:42;2.77;;;1.50;;
15669;SDS011;18524;45.190;5.732;2022-08-21T02:06:33;2.30;;;1.40;;
15669;SDS011;18524;45.190;5.732;2022-08-21T02:11:24;1.60;;;1.37;;
15669;SDS011;18524;45.190;5.732;2022-08-21T02:16:15;2.67;;;1.20;;
15669;SDS011;18524;45.190;5.732;2022-08-21T02:21:05;2.60;;;1.10;;
15669;SDS011;18524;45.190;5.732;2022-08-21T02:25:57;5.10;;;1.40;;
15669;SDS011;18524;45.190;5.732;2022-08-21T02:30:48;1.77;;;1.23;;
15669;SDS011;18524;45.190;5.732;2022-08-21T02:35:39;2.43;;;1.20;;
15669;SDS011;18524;45.190;5.732;2022-08-21T02:40:33;2.30;;;1.43;;
15669;SDS011;18524;45.190;5.732;2022-08-21T02:45:26;1.97;;;1.30;;
15669;SDS011;18524;45.190;5.732;2022-08-21T02:50:23;1.97;;;1.20;;
15669;SDS011;18524;45.190;5.732;2022-08-21T02:55:16;3.00;;;1.57;;
15669;SDS011;18524;45.190;5.732;2022-08-21T03:00:06;3.13;;;1.20;;
15669;SDS011;18524;45.190;5.732;2022-08-21T03:04:59;1.40;;;1.30;;
15669;SDS011;18524;45.190;5.732;2022-08-21T03:09:49;3.00;;;1.50;;
15669;SDS011;18524;45.190;5.732;2022-08-21T03:14:40;1.27;;;1.20;;
15669;SDS011;18524;45.190;5.732;2022-08-21T03:19:30;2.20;;;1.50;;
15669;SDS011;18524;45.190;5.732;2022-08-21T03:24:21;1.70;;;1.60;;
15669;SDS011;18524;45.190;5.732;2022-08-21T03:29:11;2.43;;;1.63;;
15669;SDS011;18524;45.190;5.732;2022-08-21T03:34:01;1.80;;;1.43;;
15669;SDS011;18524;45.190;5.732;2022-08-21T03:38:52;2.57;;;1.17;;
15669;SDS011;18524;45.190;5.732;2022-08-21T03:43:42;1.10;;;1.10;;
15669;SDS011;18524;45.190;5.732;2022-08-21T03:48:34;1.70;;;1.17;;
15669;SDS011;18524;45.190;5.732;2022-08-21T03:53:26;1.23;;;1.13;;
15669;SDS011;18524;45.190;5.732;2022-08-21T03:58:17;1.77;;;1.50;;
15669;SDS011;18524;45.190;5.732;2022-08-21T04:03:10;2.80;;;1.43;;
15669;SDS011;18524;45.190;5.732;2022-08-21T04:08:02;1.60;;;1.50;;
15669;SDS011;18524;45.190;5.732;2022-08-21T04:12:54;2.40;;;1.50;;
15669;SDS011;18524;45.190;5.732;2022-08-21T04:17:45;2.40;;;1.40;;
15669;SDS011;18524;45.190;5.732;2022-08-21T04:22:35;1.63;;;1.40;;
15669;SDS011;18524;45.190;5.732;2022-08-21T04:27:26;2.80;;;1.30;;
15669;SDS011;18524;45.190;5.732;2022-08-21T04:32:23;2.40;;;1.40;;
15669;SDS011;18524;45.190;5.732;2022-08-21T04:37:14;1.50;;;1.40;;
15669;SDS011;18524;45.190;5.732;2022-08-21T04:42:05;1.40;;;1.30;;
15669;SDS011;18524;45.190;5.732;2022-08-21T04:46:56;1.53;;;1.20;;
15669;SDS011;18524;45.190;5.732;2022-08-21T04:51:47;1.73;;;1.27;;
15669;SDS011;18524;45.190;5.732;2022-08-21T04:56:41;2.10;;;1.40;;
15669;SDS011;18524;45.190;5.732;2022-08-21T05:01:35;1.73;;;1.30;;
15669;SDS011;18524;45.190;5.732;2022-08-21T05:06:28;1.40;;;1.30;;
15669;SDS011;18524;45.190;5.732;2022-08-21T05:11:23;1.83;;;1.47;;
15669;SDS011;18524;45.190;5.732;2022-08-21T05:16:13;1.43;;;1.33;;
15669;SDS011;18524;45.190;5.732;2022-08-21T05:21:05;1.40;;;1.30;;
15669;SDS011;18524;45.190;5.732;2022-08-21T05:25:56;1.53;;;1.07;;
15669;SDS011;18524;45.190;5.732;2022-08-21T05:30:47;1.93;;;1.50;;
15669;SDS011;18524;45.190;5.732;2022-08-21T05:35:37;3.07;;;1.53;;
15669;SDS011;18524;45.190;5.732;2022-08-21T05:40:28;1.30;;;1.20;;
15669;SDS011;18524;45.190;5.732;2022-08-21T05:45:19;4.20;;;1.40;;
15669;SDS011;18524;45.190;5.732;2022-08-21T05:50:09;3.97;;;1.70;;
15669;SDS011;18524;45.190;5.732;2022-08-21T05:55:00;2.53;;;1.40;;
15669;SDS011;18524;45.190;5.732;2022-08-21T05:59:51;1.40;;;1.20;;
15669;SDS011;18524;45.190;5.732;2022-08-21T06:04:41;2.10;;;1.33;;
15669;SDS011;18524;45.190;5.732;2022-08-21T06:09:32;1.63;;;1.37;;
15669;SDS011;18524;45.190;5.732;2022-08-21T06:14:23;2.50;;;1.40;;
15669;SDS011;18524;45.190;5.732;2022-08-21T06:19:13;2.70;;;1.10;;
15669;SDS011;18524;45.190;5.732;2022-08-21T06:24:04;1.90;;;1.30;;
15669;SDS011;18524;45.190;5.732;2022-08-21T06:28:55;3.87;;;2.00;;
15669;SDS011;18524;45.190;5.732;2022-08-21T06:33:45;4.13;;;2.90;;
15669;SDS011;18524;45.190;5.732;2022-08-21T06:38:36;2.00;;;1.73;;
15669;SDS011;18524;45.190;5.732;2022-08-21T06:43:27;3.13;;;1.40;;
15669;SDS011;18524;45.190;5.732;2022-08-21T06:48:18;2.27;;;1.33;;
15669;SDS011;18524;45.190;5.732;2022-08-21T06:53:10;1.03;;;1.00;;
15669;SDS011;18524;45.190;5.732;2022-08-21T06:58:03;3.57;;;1.30;;
15669;SDS011;18524;45.190;5.732;2022-08-21T07:02:54;2.90;;;1.50;;
15669;SDS011;18524;45.190;5.732;2022-08-21T07:07:45;1.80;;;1.50;;
15669;SDS011;18524;45.190;5.732;2022-08-21T07:12:36;1.90;;;1.50;;
15669;SDS011;18524;45.190;5.732;2022-08-21T07:17:26;3.07;;;1.77;;
15669;SDS011;18524;45.190;5.732;2022-08-21T07:22:18;3.53;;;2.23;;
15669;SDS011;18524;45.190;5.732;2022-08-21T07:27:10;5.23;;;2.97;;
15669;SDS011;18524;45.190;5.732;2022-08-21T07:32:00;1.40;;;1.30;;
15669;SDS011;18524;45.190;5.732;2022-08-21T07:36:51;3.57;;;1.73;;
15669;SDS011;18524;45.190;5.732;2022-08-21T07:41:41;1.60;;;1.50;;
15669;SDS011;18524;45.190;5.732;2022-08-21T07:46:32;1.50;;;1.40;;
15669;SDS011;18524;45.190;5.732;2022-08-21T07:51:24;2.50;;;1.77;;
15669;SDS011;18524;45.190;5.732;2022-08-21T07:56:17;3.10;;;1.50;;
15669;SDS011;18524;45.190;5.732;2022-08-21T08:01:08;1.73;;;1.60;;
15669;SDS011;18524;45.190;5.732;2022-08-21T08:05:58;1.87;;;1.60;;
15669;SDS011;18524;45.190;5.732;2022-08-21T08:10:49;3.07;;;1.60;;
15669;SDS011;18524;45.190;5.732;2022-08-21T08:15:39;1.70;;;1.60;;
15669;SDS011;18524;45.190;5.732;2022-08-21T08:20:30;1.60;;;1.50;;
15669;SDS011;18524;45.190;5.732;2022-08-21T08:25:21;2.30;;;1.37;;
15669;SDS011;18524;45.190;5.732;2022-08-21T08:30:14;2.53;;;1.30;;
15669;SDS011;18524;45.190;5.732;2022-08-21T08:35:06;1.97;;;1.63;;
15669;SDS011;18524;45.190;5.732;2022-08-21T08:39:58;2.07;;;1.70;;
15669;SDS011;18524;45.190;5.732;2022-08-21T08:44:49;2.40;;;1.33;;
15669;SDS011;18524;45.190;5.732;2022-08-21T08:54:51;1.80;;;1.50;;
15669;SDS011;18524;45.190;5.732;2022-08-21T09:00:00;1.77;;;1.50;;
15669;SDS011;18524;45.190;5.732;2022-08-21T09:04:59;1.80;;;1.70;;
15669;SDS011;18524;45.190;5.732;2022-08-21T09:15:23;1.80;;;1.70;;
15669;SDS011;18524;45.190;5.732;2022-08-21T09:25:50;4.93;;;1.70;;
15669;SDS011;18524;45.190;5.732;2022-08-21T09:30:57;1.60;;;1.50;;
15669;SDS011;18524;45.190;5.732;2022-08-21T09:35:53;2.00;;;1.47;;
15669;SDS011;18524;45.190;5.732;2022-08-21T09:40:47;1.87;;;1.50;;
15669;SDS011;18524;45.190;5.732;2022-08-21T09:45:48;1.60;;;1.50;;
15669;SDS011;18524;45.190;5.732;2022-08-21T09:50:51;2.77;;;1.60;;
15669;SDS011;18524;45.190;5.732;2022-08-21T09:55:50;1.40;;;1.30;;
15669;SDS011;18524;45.190;5.732;2022-08-21T10:01:05;1.60;;;1.50;;
15669;SDS011;18524;45.190;5.732;2022-08-21T10:06:00;1.60;;;1.50;;
15669;SDS011;18524;45.190;5.732;2022-08-21T10:10:56;1.40;;;1.30;;
15669;SDS011;18524;45.190;5.732;2022-08-21T10:21:13;3.07;;;1.77;;
15669;SDS011;18524;45.190;5.732;2022-08-21T10:31:18;1.70;;;1.60;;
15669;SDS011;18524;45.190;5.732;2022-08-21T10:36:25;3.13;;;1.60;;
15669;SDS011;18524;45.190;5.732;2022-08-21T10:57:02;1.50;;;1.20;;
15669;SDS011;18524;45.190;5.732;2022-08-21T11:06:53;1.30;;;1.20;;
15669;SDS011;18524;45.190;5.732;2022-08-21T11:11:52;1.30;;;1.20;;
15669;SDS011;18524;45.190;5.732;2022-08-21T11:16:53;1.30;;;1.20;;
15669;SDS011;18524;45.190;5.732;2022-08-21T11:42:37;1.57;;;1.20;;
15669;SDS011;18524;45.190;5.732;2022-08-21T11:47:58;2.17;;;1.40;;
15669;SDS011;18524;45.190;5.732;2022-08-21T11:53:04;1.40;;;1.30;;
15669;SDS011;18524;45.190;5.732;2022-08-21T11:58:05;1.57;;;1.13;;
15669;SDS011;18524;45.190;5.732;2022-08-21T12:03:13;1.50;;;1.10;;
15669;SDS011;18524;45.190;5.732;2022-08-21T12:08:10;1.80;;;1.00;;
15669;SDS011;18524;45.190;5.732;2022-08-21T12:13:24;1.20;;;1.10;;
15669;SDS011;18524;45.190;5.732;2022-08-21T12:18:22;1.00;;;1.00;;
15669;SDS011;18524;45.190;5.732;2022-08-21T12:23:27;1.73;;;1.20;;
15669;SDS011;18524;45.190;5.732;2022-08-21T12:28:38;1.10;;;1.10;;
15669;SDS011;18524;45.190;5.732;2022-08-21T12:33:37;2.77;;;1.20;;
15669;SDS011;18524;45.190;5.732;2022-08-21T12:38:39;1.53;;;1.30;;
15669;SDS011;18524;45.190;5.732;2022-08-21T12:43:39;2.90;;;2.00;;
15669;SDS011;18524;45.190;5.732;2022-08-21T12:53:50;1.90;;;1.40;;
15669;SDS011;18524;45.190;5.732;2022-08-21T12:58:50;2.30;;;1.73;;
15669;SDS011;18524;45.190;5.732;2022-08-21T13:03:43;1.70;;;1.53;;
15669;SDS011;18524;45.190;5.732;2022-08-21T13:08:35;1.90;;;1.53;;
15669;SDS011;18524;45.190;5.732;2022-08-21T13:13:29;1.87;;;1.50;;
15669;SDS011;18524;45.190;5.732;2022-08-21T13:18:21;1.63;;;1.00;;
15669;SDS011;18524;45.190;5.732;2022-08-21T13:23:29;1.40;;;1.30;;
15669;SDS011;18524;45.190;5.732;2022-08-21T13:28:20;2.43;;;1.60;;
15669;SDS011;18524;45.190;5.732;2022-08-21T13:33:10;1.20;;;1.07;;
15669;SDS011;18524;45.190;5.732;2022-08-21T13:38:04;1.90;;;1.20;;
15669;SDS011;18524;45.190;5.732;2022-08-21T13:42:55;2.20;;;1.13;;
15669;SDS011;18524;45.190;5.732;2022-08-21T13:47:46;1.40;;;1.20;;
15669;SDS011;18524;45.190;5.732;2022-08-21T13:52:44;3.10;;;1.20;;
15669;SDS011;18524;45.190;5.732;2022-08-21T13:57:38;1.30;;;0.90;;
15669;SDS011;18524;45.190;5.732;2022-08-21T14:02:28;2.30;;;1.30;;
15669;SDS011;18524;45.190;5.732;2022-08-21T14:07:24;3.97;;;2.80;;
15669;SDS011;18524;45.190;5.732;2022-08-21T14:12:26;1.27;;;1.17;;
15669;SDS011;18524;45.190;5.732;2022-08-21T14:17:38;2.20;;;1.33;;
15669;SDS011;18524;45.190;5.732;2022-08-21T14:27:24;2.33;;;1.50;;
15669;SDS011;18524;45.190;5.732;2022-08-21T14:32:22;1.97;;;1.60;;
15669;SDS011;18524;45.190;5.732;2022-08-21T14:37:16;3.17;;;1.33;;
15669;SDS011;18524;45.190;5.732;2022-08-21T14:42:07;1.10;;;0.90;;
15669;SDS011;18524;45.190;5.732;2022-08-21T14:46:57;3.30;;;1.53;;
15669;SDS011;18524;45.190;5.732;2022-08-21T14:51:48;3.20;;;1.70;;
15669;SDS011;18524;45.190;5.732;2022-08-21T14:56:43;2.33;;;1.20;;
15669;SDS011;18524;45.190;5.732;2022-08-21T15:01:35;3.73;;;1.50;;
15669;SDS011;18524;45.190;5.732;2022-08-21T15:06:27;1.87;;;1.43;;
15669;SDS011;18524;45.190;5.732;2022-08-21T15:11:18;4.37;;;1.80;;
15669;SDS011;18524;45.190;5.732;2022-08-21T15:16:11;1.67;;;1.43;;
15669;SDS011;18524;45.190;5.732;2022-08-21T15:21:02;2.40;;;1.37;;
15669;SDS011;18524;45.190;5.732;2022-08-21T15:25:53;2.63;;;1.47;;
15669;SDS011;18524;45.190;5.732;2022-08-21T15:30:45;3.60;;;1.30;;
15669;SDS011;18524;45.190;5.732;2022-08-21T15:35:36;1.83;;;1.50;;
15669;SDS011;18524;45.190;5.732;2022-08-21T15:40:27;2.60;;;1.40;;
15669;SDS011;18524;45.190;5.732;2022-08-21T15:45:18;1.90;;;1.20;;
15669;SDS011;18524;45.190;5.732;2022-08-21T15:50:09;2.10;;;1.80;;
15669;SDS011;18524;45.190;5.732;2022-08-21T15:55:01;1.43;;;1.30;;
15669;SDS011;18524;45.190;5.732;2022-08-21T16:00:04;1.73;;;1.37;;
15669;SDS011;18524;45.190;5.732;2022-08-21T16:05:02;2.63;;;1.40;;
15669;SDS011;18524;45.190;5.732;2022-08-21T16:09:53;1.67;;;1.30;;
15669;SDS011;18524;45.190;5.732;2022-08-21T16:14:44;2.33;;;1.50;;
15669;SDS011;18524;45.190;5.732;2022-08-21T16:19:34;1.87;;;1.33;;
15669;SDS011;18524;45.190;5.732;2022-08-21T16:24:26;2.13;;;1.37;;
15669;SDS011;18524;45.190;5.732;2022-08-21T16:29:17;2.00;;;1.50;;
15669;SDS011;18524;45.190;5.732;2022-08-21T16:34:08;2.00;;;1.70;;
15669;SDS011;18524;45.190;5.732;2022-08-21T16:39:04;1.57;;;1.33;;
15669;SDS011;18524;45.190;5.732;2022-08-21T16:43:54;1.77;;;1.30;;
15669;SDS011;18524;45.190;5.732;2022-08-21T16:48:45;2.77;;;1.30;;
15669;SDS011;18524;45.190;5.732;2022-08-21T16:53:35;1.90;;;1.40;;
15669;SDS011;18524;45.190;5.732;2022-08-21T16:58:31;1.97;;;1.30;;
15669;SDS011;18524;45.190;5.732;2022-08-21T17:03:33;1.23;;;1.10;;
15669;SDS011;18524;45.190;5.732;2022-08-21T17:08:28;1.93;;;1.33;;
15669;SDS011;18524;45.190;5.732;2022-08-21T17:13:18;3.87;;;1.60;;
15669;SDS011;18524;45.190;5.732;2022-08-21T17:18:10;2.53;;;1.53;;
15669;SDS011;18524;45.190;5.732;2022-08-21T17:23:03;1.90;;;1.20;;
15669;SDS011;18524;45.190;5.732;2022-08-21T17:27:54;2.50;;;1.73;;
15669;SDS011;18524;45.190;5.732;2022-08-21T17:32:45;4.00;;;2.10;;
15669;SDS011;18524;45.190;5.732;2022-08-21T17:37:37;4.43;;;1.80;;
15669;SDS011;18524;45.190;5.732;2022-08-21T17:42:27;1.53;;;1.40;;
15669;SDS011;18524;45.190;5.732;2022-08-21T17:47:19;2.93;;;1.77;;
15669;SDS011;18524;45.190;5.732;2022-08-21T17:52:09;2.13;;;1.70;;
15669;SDS011;18524;45.190;5.732;2022-08-21T17:57:00;3.27;;;1.80;;
15669;SDS011;18524;45.190;5.732;2022-08-21T18:01:51;2.37;;;1.50;;
15669;SDS011;18524;45.190;5.732;2022-08-21T18:06:43;1.83;;;1.60;;
15669;SDS011;18524;45.190;5.732;2022-08-21T18:11:34;3.00;;;1.87;;
15669;SDS011;18524;45.190;5.732;2022-08-21T18:16:27;3.00;;;1.70;;
15669;SDS011;18524;45.190;5.732;2022-08-21T18:21:19;2.70;;;1.87;;
15669;SDS011;18524;45.190;5.732;2022-08-21T18:26:10;2.37;;;1.80;;
15669;SDS011;18524;45.190;5.732;2022-08-21T18:31:03;2.73;;;1.60;;
15669;SDS011;18524;45.190;5.732;2022-08-21T18:35:56;2.10;;;1.80;;
15669;SDS011;18524;45.190;5.732;2022-08-21T18:40:50;2.80;;;2.03;;
15669;SDS011;18524;45.190;5.732;2022-08-21T18:45:42;1.60;;;1.47;;
15669;SDS011;18524;45.190;5.732;2022-08-21T18:50:33;2.30;;;1.80;;
15669;SDS011;18524;45.190;5.732;2022-08-21T18:55:25;4.60;;;2.27;;
15669;SDS011;18524;45.190;5.732;2022-08-21T19:00:19;1.73;;;1.63;;
15669;SDS011;18524;45.190;5.732;2022-08-21T19:05:13;1.70;;;1.60;;
15669;SDS011;18524;45.190;5.732;2022-08-21T19:10:06;2.23;;;1.60;;
15669;SDS011;18524;45.190;5.732;2022-08-21T19:14:59;2.90;;;2.13;;
15669;SDS011;18524;45.190;5.732;2022-08-21T19:19:50;3.60;;;2.00;;
15669;SDS011;18524;45.190;5.732;2022-08-21T19:24:41;2.93;;;1.83;;
15669;SDS011;18524;45.190;5.732;2022-08-21T19:29:32;3.77;;;2.10;;
15669;SDS011;18524;45.190;5.732;2022-08-21T19:34:25;2.50;;;1.87;;
15669;SDS011;18524;45.190;5.732;2022-08-21T19:39:17;4.80;;;1.97;;
15669;SDS011;18524;45.190;5.732;2022-08-21T19:44:08;2.87;;;2.27;;
15669;SDS011;18524;45.190;5.732;2022-08-21T19:49:03;2.17;;;1.83;;
15669;SDS011;18524;45.190;5.732;2022-08-21T19:53:55;3.40;;;2.17;;
15669;SDS011;18524;45.190;5.732;2022-08-21T19:58:46;2.47;;;2.20;;
15669;SDS011;18524;45.190;5.732;2022-08-21T20:03:37;2.87;;;2.00;;
15669;SDS011;18524;45.190;5.732;2022-08-21T20:08:27;2.60;;;2.17;;
15669;SDS011;18524;45.190;5.732;2022-08-21T20:13:18;2.97;;;1.97;;
15669;SDS011;18524;45.190;5.732;2022-08-21T20:18:11;2.87;;;2.17;;
15669;SDS011;18524;45.190;5.732;2022-08-21T20:23:02;3.50;;;2.33;;
15669;SDS011;18524;45.190;5.732;2022-08-21T20:27:52;3.77;;;2.40;;
15669;SDS011;18524;45.190;5.732;2022-08-21T20:32:43;2.77;;;2.50;;
15669;SDS011;18524;45.190;5.732;2022-08-21T20:37:33;2.67;;;2.10;;
15669;SDS011;18524;45.190;5.732;2022-08-21T20:42:23;3.03;;;2.07;;
15669;SDS011;18524;45.190;5.732;2022-08-21T20:47:14;2.00;;;1.80;;
15669;SDS011;18524;45.190;5.732;2022-08-21T20:52:05;3.77;;;2.37;;
15669;SDS011;18524;45.190;5.732;2022-08-21T20:56:59;4.63;;;2.30;;
15669;SDS011;18524;45.190;5.732;2022-08-21T21:01:58;3.10;;;2.60;;
15669;SDS011;18524;45.190;5.732;2022-08-21T21:07:04;2.17;;;1.80;;
15669;SDS011;18524;45.190;5.732;2022-08-21T21:11:57;2.33;;;2.07;;
15669;SDS011;18524;45.190;5.732;2022-08-21T21:16:54;3.17;;;2.20;;
15669;SDS011;18524;45.190;5.732;2022-08-21T21:21:51;3.03;;;2.57;;
15669;SDS011;18524;45.190;5.732;2022-08-21T21:26:56;3.13;;;2.40;;
15669;SDS011;18524;45.190;5.732;2022-08-21T21:31:51;3.10;;;2.40;;
15669;SDS011;18524;45.190;5.732;2022-08-21T21:36:45;2.80;;;2.40;;
15669;SDS011;18524;45.190;5.732;2022-08-21T21:41:46;2.83;;;2.23;;
15669;SDS011;18524;45.190;5.732;2022-08-21T22:03:05;3.20;;;2.27;;
15669;SDS011;18524;45.190;5.732;2022-08-21T22:08:02;3.57;;;2.47;;
15669;SDS011;18524;45.190;5.732;2022-08-21T22:18:04;3.53;;;2.27;;
15669;SDS011;18524;45.190;5.732;2022-08-21T22:23:00;3.20;;;2.33;;
15669;SDS011;18524;45.190;5.732;2022-08-21T22:27:57;4.23;;;2.40;;
15669;SDS011;18524;45.190;5.732;2022-08-21T22:32:52;4.10;;;2.60;;
15669;SDS011;18524;45.190;5.732;2022-08-21T22:37:44;5.50;;;2.50;;
15669;SDS011;18524;45.190;5.732;2022-08-21T22:42:39;3.30;;;2.20;;
15669;SDS011;18524;45.190;5.732;2022-08-21T22:47:31;3.30;;;2.23;;
15669;SDS011;18524;45.190;5.732;2022-08-21T22:52:31;2.57;;;2.20;;
15669;SDS011;18524;45.190;5.732;2022-08-21T22:57:25;2.60;;;2.07;;
15669;SDS011;18524;45.190;5.732;2022-08-21T23:07:41;3.43;;;2.53;;
15669;SDS011;18524;45.190;5.732;2022-08-21T23:12:35;2.87;;;2.20;;
15669;SDS011;18524;45.190;5.732;2022-08-21T23:17:33;4.10;;;2.33;;
15669;SDS011;18524;45.190;5.732;2022-08-21T23:48:28;3.03;;;2.00;;
15669;SDS011;18524;45.190;5.732;2022-08-21T23:59:27;3.87;;;2.10;;
